createdAt,value
2018-09-01T00:00:42.916Z,982.29
2018-09-01T00:01:42.915Z,982.28
2018-09-01T00:02:42.957Z,982.25
2018-09-01T00:03:42.920Z,982.21
2018-09-01T00:04:42.913Z,982.21
2018-09-01T00:05:42.925Z,982.16
2018-09-01T00:06:42.924Z,982.19
2018-09-01T00:07:42.941Z,982.17
2018-09-01T00:08:42.914Z,982.20
2018-09-01T00:09:42.913Z,982.23
2018-09-01T00:10:42.911Z,982.22
2018-09-01T00:11:42.909Z,982.21
2018-09-01T00:12:42.933Z,982.20
2018-09-01T00:13:42.897Z,982.15
2018-09-01T00:14:42.902Z,982.16
2018-09-01T00:15:42.898Z,982.12
2018-09-01T00:16:42.894Z,982.13
2018-09-01T00:17:42.922Z,982.12
2018-09-01T00:18:42.892Z,982.11
2018-09-01T00:19:42.895Z,982.10
2018-09-01T00:20:42.895Z,982.07
2018-09-01T00:21:42.884Z,982.08
2018-09-01T00:22:42.920Z,982.14
2018-09-01T00:23:42.881Z,982.16
2018-09-01T00:24:42.883Z,982.17
2018-09-01T00:25:42.888Z,982.15
2018-09-01T00:26:42.878Z,982.16
2018-09-01T00:27:42.908Z,982.18
2018-09-01T00:28:42.880Z,982.16
2018-09-01T00:29:42.872Z,982.16
2018-09-01T00:30:42.879Z,982.16
2018-09-01T00:31:42.866Z,982.20
2018-09-01T00:32:42.886Z,982.20
2018-09-01T00:33:42.857Z,982.21
2018-09-01T00:34:42.866Z,982.21
2018-09-01T00:35:42.854Z,982.21
2018-09-01T00:36:42.861Z,982.20
2018-09-01T00:37:42.886Z,982.24
2018-09-01T00:38:42.852Z,982.22
2018-09-01T00:39:42.847Z,982.20
2018-09-01T00:40:42.841Z,982.20
2018-09-01T00:41:42.842Z,982.23
2018-09-01T00:42:42.875Z,982.25
2018-09-01T00:43:42.834Z,982.27
2018-09-01T00:44:42.838Z,982.30
2018-09-01T00:45:42.846Z,982.34
2018-09-01T00:46:42.833Z,982.39
2018-09-01T00:47:42.863Z,982.42
2018-09-01T00:48:42.827Z,982.43
2018-09-01T00:49:42.835Z,982.43
2018-09-01T00:50:42.830Z,982.42
2018-09-01T00:51:42.822Z,982.40
2018-09-01T00:52:42.858Z,982.36
2018-09-01T00:53:42.822Z,982.42
2018-09-01T00:54:42.821Z,982.33
2018-09-01T00:55:42.813Z,982.31
2018-09-01T00:56:42.806Z,982.31
2018-09-01T00:57:42.848Z,982.31
2018-09-01T00:58:42.804Z,982.36
2018-09-01T00:59:42.798Z,982.40
2018-09-01T01:00:42.794Z,982.40
2018-09-01T01:01:42.795Z,982.40
2018-09-01T01:02:42.824Z,982.43
2018-09-01T01:03:42.786Z,982.42
2018-09-01T01:04:42.788Z,982.49
2018-09-01T01:05:42.792Z,982.50
2018-09-01T01:06:42.780Z,982.47
2018-09-01T01:07:42.814Z,982.47
2018-09-01T01:08:42.783Z,982.50
2018-09-01T01:09:42.779Z,982.46
2018-09-01T01:10:42.777Z,982.42
2018-09-01T01:11:42.780Z,982.48
2018-09-01T01:12:42.812Z,982.41
2018-09-01T01:13:42.766Z,982.41
2018-09-01T01:14:42.767Z,982.41
2018-09-01T01:15:42.766Z,982.39
2018-09-01T01:16:42.771Z,982.42
2018-09-01T01:17:42.791Z,982.40
2018-09-01T01:18:42.759Z,982.38
2018-09-01T01:19:42.752Z,982.38
2018-09-01T01:20:42.746Z,982.45
2018-09-01T01:21:42.751Z,982.37
2018-09-01T01:22:42.770Z,982.40
2018-09-01T01:23:42.741Z,982.39
2018-09-01T01:24:42.742Z,982.41
2018-09-01T01:25:42.738Z,982.42
2018-09-01T01:26:42.768Z,982.40
2018-09-01T01:27:42.735Z,982.41
2018-09-01T01:28:42.740Z,982.40
2018-09-01T01:29:42.721Z,982.42
2018-09-01T01:30:42.723Z,982.43
2018-09-01T01:31:42.749Z,982.39
2018-09-01T01:32:42.724Z,982.40
2018-09-01T01:33:42.722Z,982.40
2018-09-01T01:34:42.721Z,982.39
2018-09-01T01:35:42.710Z,982.36
2018-09-01T01:36:42.739Z,982.36
2018-09-01T01:37:42.705Z,982.33
2018-09-01T01:38:42.705Z,982.36
2018-09-01T01:39:42.700Z,982.32
2018-09-01T01:40:42.699Z,982.34
2018-09-01T01:41:42.721Z,982.32
2018-09-01T01:42:42.700Z,982.32
2018-09-01T01:43:42.689Z,982.39
2018-09-01T01:44:42.695Z,982.34
2018-09-01T01:45:42.687Z,982.37
2018-09-01T01:46:42.728Z,982.38
2018-09-01T01:47:42.676Z,982.36
2018-09-01T01:48:42.686Z,982.38
2018-09-01T01:49:42.733Z,982.36
2018-09-01T01:50:42.678Z,982.38
2018-09-01T01:51:42.696Z,982.38
2018-09-01T01:52:42.668Z,982.41
2018-09-01T01:53:42.667Z,982.39
2018-09-01T01:54:42.668Z,982.41
2018-09-01T01:55:42.668Z,982.44
2018-09-01T01:56:42.685Z,982.47
2018-09-01T01:57:42.653Z,982.45
2018-09-01T01:58:42.652Z,982.46
2018-09-01T01:59:42.645Z,982.49
2018-09-01T02:00:42.645Z,982.45
2018-09-01T02:01:42.669Z,982.45
2018-09-01T02:02:42.645Z,982.45
2018-09-01T02:03:42.633Z,982.45
2018-09-01T02:04:42.633Z,982.46
2018-09-01T02:05:42.637Z,982.52
2018-09-01T02:06:42.654Z,982.48
2018-09-01T02:07:42.627Z,982.47
2018-09-01T02:08:42.621Z,982.53
2018-09-01T02:09:42.621Z,982.52
2018-09-01T02:10:42.618Z,982.45
2018-09-01T02:11:42.642Z,982.49
2018-09-01T02:12:42.619Z,982.50
2018-09-01T02:13:42.616Z,982.49
2018-09-01T02:14:42.608Z,982.51
2018-09-01T02:15:42.600Z,982.52
2018-09-01T02:16:42.626Z,982.57
2018-09-01T02:17:42.597Z,982.60
2018-09-01T02:18:42.597Z,982.61
2018-09-01T02:19:42.591Z,982.61
2018-09-01T02:20:42.591Z,982.58
2018-09-01T02:21:42.614Z,982.61
2018-09-01T02:22:42.582Z,982.58
2018-09-01T02:23:42.582Z,982.59
2018-09-01T02:24:42.585Z,982.57
2018-09-01T02:25:42.630Z,982.57
2018-09-01T02:26:42.571Z,982.55
2018-09-01T02:27:42.564Z,982.62
2018-09-01T02:28:42.568Z,982.63
2018-09-01T02:29:42.562Z,982.63
2018-09-01T02:30:42.586Z,982.63
2018-09-01T02:31:42.565Z,982.59
2018-09-01T02:32:42.557Z,982.57
2018-09-01T02:33:42.552Z,982.54
2018-09-01T02:34:42.549Z,982.53
2018-09-01T02:35:42.578Z,982.51
2018-09-01T02:36:42.554Z,982.47
2018-09-01T02:37:42.540Z,982.46
2018-09-01T02:38:42.538Z,982.49
2018-09-01T02:39:42.535Z,982.46
2018-09-01T02:40:42.565Z,982.46
2018-09-01T02:41:42.665Z,982.49
2018-09-01T02:42:42.541Z,982.51
2018-09-01T02:43:42.524Z,982.48
2018-09-01T02:44:42.520Z,982.49
2018-09-01T02:45:42.552Z,982.51
2018-09-01T02:46:42.517Z,982.51
2018-09-01T02:47:42.505Z,982.50
2018-09-01T02:48:42.513Z,982.54
2018-09-01T02:49:42.502Z,982.55
2018-09-01T02:50:42.534Z,982.59
2018-09-01T02:51:42.524Z,982.61
2018-09-01T02:52:42.498Z,982.63
2018-09-01T02:53:42.495Z,982.63
2018-09-01T02:54:42.505Z,982.63
2018-09-01T02:55:42.522Z,982.63
2018-09-01T02:56:42.501Z,982.63
2018-09-01T02:57:42.494Z,982.67
2018-09-01T02:58:42.477Z,982.64
2018-09-01T02:59:42.481Z,982.63
2018-09-01T03:00:42.504Z,982.64
2018-09-01T03:01:42.483Z,982.68
2018-09-01T03:02:42.481Z,982.66
2018-09-01T03:03:42.504Z,982.62
2018-09-01T03:04:42.475Z,982.65
2018-09-01T03:05:42.501Z,982.63
2018-09-01T03:06:42.474Z,982.66
2018-09-01T03:07:42.477Z,982.66
2018-09-01T03:08:42.452Z,982.70
2018-09-01T03:09:42.449Z,982.64
2018-09-01T03:10:42.477Z,982.66
2018-09-01T03:11:42.452Z,982.64
2018-09-01T03:12:42.461Z,982.67
2018-09-01T03:13:42.429Z,982.65
2018-09-01T03:14:42.440Z,982.65
2018-09-01T03:15:42.467Z,982.62
2018-09-01T03:16:42.434Z,982.64
2018-09-01T03:17:42.428Z,982.68
2018-09-01T03:18:42.422Z,982.68
2018-09-01T03:19:42.441Z,982.69
2018-09-01T03:20:42.418Z,982.67
2018-09-01T03:21:42.590Z,982.65
2018-09-01T03:22:42.416Z,982.61
2018-09-01T03:23:42.405Z,982.58
2018-09-01T03:24:42.437Z,982.53
2018-09-01T03:25:42.395Z,982.50
2018-09-01T03:26:42.399Z,982.54
2018-09-01T03:27:42.395Z,982.54
2018-09-01T03:28:42.386Z,982.53
2018-09-01T03:29:42.413Z,982.57
2018-09-01T03:30:42.388Z,982.56
2018-09-01T03:31:42.383Z,982.53
2018-09-01T03:32:42.375Z,982.52
2018-09-01T03:33:42.377Z,982.54
2018-09-01T03:34:42.399Z,982.56
2018-09-01T03:35:42.364Z,982.56
2018-09-01T03:36:42.372Z,982.54
2018-09-01T03:37:42.361Z,982.55
2018-09-01T03:38:42.352Z,982.55
2018-09-01T03:39:42.383Z,982.60
2018-09-01T03:40:42.347Z,982.56
2018-09-01T03:41:42.353Z,982.58
2018-09-01T03:42:42.345Z,982.60
2018-09-01T03:43:42.340Z,982.61
2018-09-01T03:44:42.364Z,982.69
2018-09-01T03:45:42.332Z,982.68
2018-09-01T03:46:42.334Z,982.72
2018-09-01T03:47:42.329Z,982.77
2018-09-01T03:48:42.332Z,982.78
2018-09-01T03:49:42.348Z,982.81
2018-09-01T03:50:42.317Z,982.82
2018-09-01T03:51:42.314Z,982.77
2018-09-01T03:52:42.313Z,982.73
2018-09-01T03:53:42.307Z,982.76
2018-09-01T03:54:42.334Z,982.74
2018-09-01T03:55:42.304Z,982.75
2018-09-01T03:56:42.297Z,982.70
2018-09-01T03:57:42.295Z,982.70
2018-09-01T03:58:42.291Z,982.67
2018-09-01T03:59:42.322Z,982.68
2018-09-01T04:00:42.320Z,982.68
2018-09-01T04:01:42.280Z,982.65
2018-09-01T04:02:42.282Z,982.68
2018-09-01T04:03:42.275Z,982.64
2018-09-01T04:04:42.271Z,982.67
2018-09-01T04:05:42.302Z,982.66
2018-09-01T04:06:42.273Z,982.67
2018-09-01T04:07:42.265Z,982.70
2018-09-01T04:08:42.269Z,982.78
2018-09-01T04:09:42.256Z,982.80
2018-09-01T04:10:42.289Z,982.81
2018-09-01T04:11:42.247Z,982.72
2018-09-01T04:12:42.240Z,982.74
2018-09-01T04:13:42.245Z,982.79
2018-09-01T04:14:42.238Z,982.77
2018-09-01T04:15:42.265Z,982.74
2018-09-01T04:16:42.231Z,982.77
2018-09-01T04:17:42.226Z,982.77
2018-09-01T04:18:42.225Z,982.78
2018-09-01T04:19:42.220Z,982.80
2018-09-01T04:20:42.247Z,982.82
2018-09-01T04:21:42.217Z,982.83
2018-09-01T04:22:42.213Z,982.87
2018-09-01T04:23:42.211Z,982.85
2018-09-01T04:24:42.205Z,982.83
2018-09-01T04:25:42.228Z,982.88
2018-09-01T04:26:42.201Z,982.90
2018-09-01T04:27:42.193Z,982.89
2018-09-01T04:28:42.192Z,982.92
2018-09-01T04:29:42.185Z,982.93
2018-09-01T04:30:42.211Z,982.93
2018-09-01T04:31:42.209Z,982.89
2018-09-01T04:32:42.176Z,982.88
2018-09-01T04:33:42.178Z,982.92
2018-09-01T04:34:42.175Z,982.92
2018-09-01T04:35:42.167Z,982.95
2018-09-01T04:36:42.194Z,982.94
2018-09-01T04:37:42.168Z,982.97
2018-09-01T04:38:42.158Z,982.99
2018-09-01T04:39:42.157Z,983.00
2018-09-01T04:40:42.156Z,982.98
2018-09-01T04:41:42.382Z,983.01
2018-09-01T04:42:42.254Z,983.01
2018-09-01T04:43:42.144Z,983.01
2018-09-01T04:44:42.138Z,983.05
2018-09-01T04:45:42.164Z,983.03
2018-09-01T04:46:42.157Z,983.06
2018-09-01T04:47:42.135Z,983.02
2018-09-01T04:48:42.129Z,983.05
2018-09-01T04:49:42.122Z,983.03
2018-09-01T04:50:42.112Z,983.00
2018-09-01T04:51:42.136Z,982.99
2018-09-01T04:52:42.114Z,983.01
2018-09-01T04:53:42.108Z,983.01
2018-09-01T04:54:42.106Z,983.02
2018-09-01T04:55:42.101Z,983.06
2018-09-01T04:56:42.124Z,983.02
2018-09-01T04:57:42.095Z,983.07
2018-09-01T04:58:42.086Z,983.05
2018-09-01T04:59:42.089Z,983.05
2018-09-01T05:00:42.095Z,983.07
2018-09-01T05:01:42.110Z,983.09
2018-09-01T05:02:42.078Z,983.12
2018-09-01T05:03:42.069Z,983.11
2018-09-01T05:04:42.075Z,983.09
2018-09-01T05:05:42.090Z,983.07
2018-09-01T05:06:42.094Z,983.12
2018-09-01T05:07:42.060Z,983.11
2018-09-01T05:08:42.058Z,983.11
2018-09-01T05:09:42.055Z,983.12
2018-09-01T05:10:42.050Z,983.14
2018-09-01T05:11:42.083Z,983.14
2018-09-01T05:12:42.053Z,983.18
2018-09-01T05:13:42.045Z,983.14
2018-09-01T05:14:42.038Z,983.20
2018-09-01T05:15:42.035Z,983.19
2018-09-01T05:16:42.055Z,983.19
2018-09-01T05:17:42.031Z,983.20
2018-09-01T05:18:42.028Z,983.22
2018-09-01T05:19:42.024Z,983.19
2018-09-01T05:20:42.015Z,983.23
2018-09-01T05:21:42.048Z,983.26
2018-09-01T05:22:42.012Z,983.30
2018-09-01T05:23:42.011Z,983.29
2018-09-01T05:24:42.021Z,983.30
2018-09-01T05:25:42.003Z,983.33
2018-09-01T05:26:42.036Z,983.33
2018-09-01T05:27:41.998Z,983.31
2018-09-01T05:28:41.992Z,983.36
2018-09-01T05:29:42.006Z,983.32
2018-09-01T05:30:42.007Z,983.33
2018-09-01T05:31:42.012Z,983.30
2018-09-01T05:32:41.990Z,983.26
2018-09-01T05:33:41.985Z,983.34
2018-09-01T05:34:41.980Z,983.29
2018-09-01T05:35:41.976Z,983.31
2018-09-01T05:36:42.082Z,983.30
2018-09-01T05:37:41.974Z,983.32
2018-09-01T05:38:41.969Z,983.32
2018-09-01T05:39:41.961Z,983.34
2018-09-01T05:40:41.965Z,983.40
2018-09-01T05:41:41.993Z,983.41
2018-09-01T05:42:41.954Z,983.37
2018-09-01T05:43:41.997Z,983.34
2018-09-01T05:44:41.957Z,983.37
2018-09-01T05:45:41.949Z,983.42
2018-09-01T05:46:41.977Z,983.39
2018-09-01T05:47:41.941Z,983.40
2018-09-01T05:48:41.941Z,983.41
2018-09-01T05:49:41.937Z,983.39
2018-09-01T05:50:41.937Z,983.37
2018-09-01T05:51:41.958Z,983.40
2018-09-01T05:52:41.929Z,983.41
2018-09-01T05:53:41.922Z,983.40
2018-09-01T05:54:41.926Z,983.41
2018-09-01T05:55:41.925Z,983.43
2018-09-01T05:56:41.948Z,983.45
2018-09-01T05:57:41.920Z,983.49
2018-09-01T05:58:41.914Z,983.47
2018-09-01T05:59:41.910Z,983.49
2018-09-01T06:00:41.937Z,983.49
2018-09-01T06:01:41.944Z,983.51
2018-09-01T06:02:41.908Z,983.48
2018-09-01T06:03:41.909Z,983.54
2018-09-01T06:04:41.898Z,983.54
2018-09-01T06:05:41.898Z,983.59
2018-09-01T06:06:41.921Z,983.58
2018-09-01T06:07:41.889Z,983.61
2018-09-01T06:08:41.891Z,983.63
2018-09-01T06:09:41.898Z,983.68
2018-09-01T06:10:41.887Z,983.72
2018-09-01T06:11:41.911Z,983.76
2018-09-01T06:12:41.881Z,983.77
2018-09-01T06:13:41.875Z,983.72
2018-09-01T06:14:41.889Z,983.73
2018-09-01T06:15:41.876Z,983.74
2018-09-01T06:16:41.897Z,983.76
2018-09-01T06:17:41.986Z,983.74
2018-09-01T06:18:41.879Z,983.71
2018-09-01T06:19:41.872Z,983.74
2018-09-01T06:20:41.868Z,983.73
2018-09-01T06:21:41.904Z,983.73
2018-09-01T06:22:41.868Z,983.78
2018-09-01T06:23:41.867Z,983.81
2018-09-01T06:24:41.877Z,983.84
2018-09-01T06:25:41.875Z,983.85
2018-09-01T06:26:41.906Z,983.79
2018-09-01T06:27:41.864Z,983.79
2018-09-01T06:28:41.862Z,983.79
2018-09-01T06:29:41.866Z,983.85
2018-09-01T06:30:41.862Z,983.87
2018-09-01T06:31:41.891Z,983.86
2018-09-01T06:32:41.894Z,983.79
2018-09-01T06:33:41.859Z,983.83
2018-09-01T06:34:41.858Z,983.85
2018-09-01T06:35:41.863Z,983.92
2018-09-01T06:36:41.862Z,983.94
2018-09-01T06:37:41.957Z,983.98
2018-09-01T06:38:41.864Z,983.99
2018-09-01T06:39:41.866Z,984.02
2018-09-01T06:40:41.868Z,984.03
2018-09-01T06:41:41.987Z,984.02
2018-09-01T06:42:41.867Z,984.01
2018-09-01T06:43:41.864Z,984.01
2018-09-01T06:44:41.871Z,984.00
2018-09-01T06:45:41.874Z,984.02
2018-09-01T06:46:41.911Z,984.01
2018-09-01T06:47:41.871Z,984.04
2018-09-01T06:48:41.874Z,984.05
2018-09-01T06:49:41.877Z,984.06
2018-09-01T06:50:41.881Z,984.05
2018-09-01T06:51:41.914Z,983.98
2018-09-01T06:52:41.879Z,983.95
2018-09-01T06:53:41.881Z,983.95
2018-09-01T06:54:41.888Z,983.97
2018-09-01T06:55:41.888Z,983.94
2018-09-01T06:56:41.920Z,983.93
2018-09-01T06:57:41.889Z,983.92
2018-09-01T06:58:41.900Z,983.92
2018-09-01T06:59:41.896Z,983.94
2018-09-01T07:00:41.898Z,984.10
2018-09-01T07:01:41.926Z,984.12
2018-09-01T07:02:41.901Z,984.03
2018-09-01T07:03:41.901Z,983.96
2018-09-01T07:04:41.897Z,983.96
2018-09-01T07:05:41.904Z,984.01
2018-09-01T07:06:41.932Z,984.06
2018-09-01T07:07:41.907Z,984.13
2018-09-01T07:08:41.929Z,984.11
2018-09-01T07:09:41.907Z,984.18
2018-09-01T07:10:41.913Z,984.27
2018-09-01T07:11:41.942Z,984.17
2018-09-01T07:12:41.911Z,984.14
2018-09-01T07:13:41.918Z,984.19
2018-09-01T07:14:41.926Z,984.16
2018-09-01T07:15:41.930Z,984.19
2018-09-01T07:16:41.951Z,984.16
2018-09-01T07:17:41.930Z,984.16
2018-09-01T07:18:41.935Z,984.11
2018-09-01T07:19:41.931Z,984.11
2018-09-01T07:20:41.937Z,984.08
2018-09-01T07:21:41.993Z,984.10
2018-09-01T07:22:41.944Z,984.13
2018-09-01T07:23:41.954Z,984.13
2018-09-01T07:24:41.954Z,984.18
2018-09-01T07:25:41.972Z,984.26
2018-09-01T07:26:41.952Z,984.33
2018-09-01T07:27:41.950Z,984.31
2018-09-01T07:28:41.988Z,984.31
2018-09-01T07:29:41.960Z,984.38
2018-09-01T07:30:42.171Z,984.35
2018-09-01T07:31:41.995Z,984.38
2018-09-01T07:32:41.969Z,984.34
2018-09-01T07:33:41.974Z,984.36
2018-09-01T07:34:41.976Z,984.33
2018-09-01T07:35:41.981Z,984.33
2018-09-01T07:36:42.013Z,984.36
2018-09-01T07:37:41.990Z,984.34
2018-09-01T07:38:41.988Z,984.30
2018-09-01T07:39:41.998Z,984.31
2018-09-01T07:40:41.996Z,984.34
2018-09-01T07:41:42.036Z,984.35
2018-09-01T07:42:42.018Z,984.36
2018-09-01T07:43:42.022Z,984.42
2018-09-01T07:44:42.016Z,984.41
2018-09-01T07:45:42.054Z,984.45
2018-09-01T07:46:42.030Z,984.48
2018-09-01T07:47:42.031Z,984.49
2018-09-01T07:48:42.039Z,984.56
2018-09-01T07:49:42.046Z,984.57
2018-09-01T07:50:42.085Z,984.53
2018-09-01T07:51:42.053Z,984.50
2018-09-01T07:52:42.059Z,984.44
2018-09-01T07:53:42.078Z,984.44
2018-09-01T07:54:42.120Z,984.40
2018-09-01T07:55:42.102Z,984.37
2018-09-01T07:56:42.102Z,984.39
2018-09-01T07:57:42.091Z,984.47
2018-09-01T07:58:42.101Z,984.44
2018-09-01T07:59:42.103Z,984.46
2018-09-01T08:00:42.142Z,984.44
2018-09-01T08:01:42.125Z,984.42
2018-09-01T08:02:42.126Z,984.45
2018-09-01T08:03:42.135Z,984.37
2018-09-01T08:04:42.167Z,984.43
2018-09-01T08:05:42.151Z,984.37
2018-09-01T08:06:42.156Z,984.39
2018-09-01T08:07:42.157Z,984.40
2018-09-01T08:08:42.160Z,984.45
2018-09-01T08:09:42.219Z,984.44
2018-09-01T08:10:42.178Z,984.46
2018-09-01T08:11:42.182Z,984.52
2018-09-01T08:12:42.188Z,984.42
2018-09-01T08:13:42.261Z,984.46
2018-09-01T08:14:42.269Z,984.50
2018-09-01T08:15:42.206Z,984.50
2018-09-01T08:16:42.213Z,984.50
2018-09-01T08:17:42.222Z,984.56
2018-09-01T08:18:42.231Z,984.63
2018-09-01T08:19:42.286Z,984.61
2018-09-01T08:20:42.245Z,984.64
2018-09-01T08:21:42.246Z,984.65
2018-09-01T08:22:42.265Z,984.62
2018-09-01T08:23:42.258Z,984.66
2018-09-01T08:24:42.298Z,984.68
2018-09-01T08:25:42.271Z,984.71
2018-09-01T08:26:42.287Z,984.69
2018-09-01T08:27:42.287Z,984.67
2018-09-01T08:28:42.298Z,984.68
2018-09-01T08:29:42.335Z,984.69
2018-09-01T08:30:42.318Z,984.65
2018-09-01T08:31:42.327Z,984.62
2018-09-01T08:32:42.335Z,984.58
2018-09-01T08:33:42.416Z,984.63
2018-09-01T08:34:42.379Z,984.68
2018-09-01T08:35:42.364Z,984.67
2018-09-01T08:36:42.371Z,984.68
2018-09-01T08:37:42.377Z,984.66
2018-09-01T08:38:42.392Z,984.68
2018-09-01T08:39:42.427Z,984.72
2018-09-01T08:40:42.440Z,984.71
2018-09-01T08:41:42.419Z,984.73
2018-09-01T08:42:42.432Z,984.75
2018-09-01T08:43:42.438Z,984.77
2018-09-01T08:44:42.477Z,984.59
2018-09-01T08:45:42.458Z,984.77
2018-09-01T08:46:42.472Z,984.47
2018-09-01T08:47:42.480Z,984.52
2018-09-01T08:48:42.499Z,984.67
2018-09-01T08:49:42.531Z,984.48
2018-09-01T08:50:42.551Z,984.44
2018-09-01T08:51:42.546Z,984.44
2018-09-01T08:52:42.536Z,984.41
2018-09-01T08:53:42.544Z,984.39
2018-09-01T08:54:42.587Z,984.63
2018-09-01T08:55:42.617Z,984.32
2018-09-01T08:56:42.635Z,984.27
2018-09-01T08:57:42.583Z,984.49
2018-09-01T08:58:42.597Z,984.52
2018-09-01T08:59:42.601Z,984.35
2018-09-01T09:00:42.642Z,984.29
2018-09-01T09:01:42.623Z,984.27
2018-09-01T09:02:42.631Z,984.29
2018-09-01T09:03:42.639Z,984.35
2018-09-01T09:04:42.679Z,984.59
2018-09-01T09:05:42.776Z,984.65
2018-09-01T09:06:42.692Z,984.40
2018-09-01T09:07:42.674Z,984.29
2018-09-01T09:08:42.681Z,984.27
2018-09-01T09:09:42.719Z,984.28
2018-09-01T09:10:42.728Z,984.68
2018-09-01T09:11:42.800Z,984.72
2018-09-01T09:12:42.719Z,984.76
2018-09-01T09:13:42.724Z,984.80
2018-09-01T09:14:42.767Z,984.43
2018-09-01T09:15:42.768Z,984.71
2018-09-01T09:16:42.756Z,984.39
2018-09-01T09:17:42.763Z,984.41
2018-09-01T09:18:42.827Z,984.45
2018-09-01T09:19:42.809Z,984.49
2018-09-01T09:20:42.793Z,984.38
2018-09-01T09:21:42.932Z,984.42
2018-09-01T09:22:42.804Z,984.48
2018-09-01T09:23:42.812Z,984.44
2018-09-01T09:24:42.847Z,984.44
2018-09-01T09:25:42.828Z,984.40
2018-09-01T09:26:42.839Z,984.41
2018-09-01T09:27:42.845Z,984.52
2018-09-01T09:28:42.849Z,984.38
2018-09-01T09:29:42.891Z,984.40
2018-09-01T09:30:42.881Z,984.39
2018-09-01T09:31:42.883Z,984.71
2018-09-01T09:32:42.887Z,984.37
2018-09-01T09:33:42.897Z,984.38
2018-09-01T09:34:42.918Z,984.38
2018-09-01T09:35:44.866Z,984.36
2018-09-01T09:36:42.910Z,984.33
2018-09-01T09:37:42.920Z,984.29
2018-09-01T09:38:42.923Z,984.35
2018-09-01T09:39:42.958Z,984.38
2018-09-01T09:40:42.983Z,984.42
2018-09-01T09:41:42.980Z,984.47
2018-09-01T09:42:42.950Z,984.55
2018-09-01T09:43:42.955Z,984.60
2018-09-01T09:44:42.988Z,984.79
2018-09-01T09:45:42.968Z,984.84
2018-09-01T09:46:42.975Z,984.76
2018-09-01T09:47:45.875Z,984.76
2018-09-01T09:48:42.990Z,984.80
2018-09-01T09:49:43.026Z,984.83
2018-09-01T09:50:43.002Z,984.80
2018-09-01T09:51:43.007Z,984.79
2018-09-01T09:52:43.016Z,984.72
2018-09-01T09:53:43.032Z,984.88
2018-09-01T09:54:43.066Z,984.81
2018-09-01T09:55:43.040Z,984.82
2018-09-01T09:56:43.056Z,984.79
2018-09-01T09:57:43.061Z,984.82
2018-09-01T09:58:43.106Z,984.83
2018-09-01T09:59:43.088Z,984.80
2018-09-01T10:00:43.100Z,984.53
2018-09-01T10:01:43.217Z,984.74
2018-09-01T10:02:43.123Z,984.50
2018-09-01T10:03:43.165Z,984.76
2018-09-01T10:04:43.146Z,984.36
2018-09-01T10:05:43.224Z,984.33
2018-09-01T10:06:43.170Z,984.53
2018-09-01T10:07:43.182Z,984.64
2018-09-01T10:08:43.225Z,984.34
2018-09-01T10:09:43.215Z,984.31
2018-09-01T10:10:44.016Z,984.28
2018-09-01T10:11:43.231Z,984.24
2018-09-01T10:12:43.243Z,984.30
2018-09-01T10:13:43.283Z,984.29
2018-09-01T10:14:43.262Z,984.32
2018-09-01T10:15:43.312Z,984.30
2018-09-01T10:16:43.977Z,984.34
2018-09-01T10:17:43.564Z,984.35
2018-09-01T10:18:43.885Z,984.34
2018-09-01T10:19:43.579Z,984.37
2018-09-01T10:20:43.888Z,984.36
2018-09-01T10:21:44.060Z,984.41
2018-09-01T10:22:43.340Z,984.41
2018-09-01T10:23:44.924Z,984.37
2018-09-01T10:24:44.625Z,984.39
2018-09-01T10:25:43.597Z,984.35
2018-09-01T10:26:43.555Z,984.34
2018-09-01T10:27:43.382Z,984.33
2018-09-01T10:28:43.397Z,984.34
2018-09-01T10:29:43.428Z,984.32
2018-09-01T10:30:43.421Z,984.32
2018-09-01T10:31:43.446Z,984.32
2018-09-01T10:32:43.418Z,984.30
2018-09-01T10:33:43.419Z,984.29
2018-09-01T10:34:43.459Z,984.30
2018-09-01T10:35:43.461Z,984.29
2018-09-01T10:36:43.441Z,984.29
2018-09-01T10:37:43.447Z,984.26
2018-09-01T10:38:43.459Z,984.32
2018-09-01T10:39:43.461Z,984.31
2018-09-01T10:40:43.493Z,984.36
2018-09-01T10:41:43.470Z,984.33
2018-09-01T10:42:43.481Z,984.43
2018-09-01T10:43:43.488Z,984.38
2018-09-01T10:44:43.524Z,984.43
2018-09-01T10:45:43.500Z,984.42
2018-09-01T10:46:43.538Z,984.45
2018-09-01T10:47:43.510Z,984.42
2018-09-01T10:48:43.519Z,984.38
2018-09-01T10:49:43.625Z,984.39
2018-09-01T10:50:43.690Z,984.33
2018-09-01T10:51:44.419Z,984.26
2018-09-01T10:52:44.948Z,984.19
2018-09-01T10:53:44.549Z,984.20
2018-09-01T10:54:43.578Z,984.14
2018-09-01T10:55:43.609Z,984.21
2018-09-01T10:56:43.582Z,984.22
2018-09-01T10:57:43.586Z,984.23
2018-09-01T10:58:43.666Z,984.18
2018-09-01T10:59:43.623Z,984.21
2018-09-01T11:00:43.641Z,984.24
2018-09-01T11:01:43.624Z,984.24
2018-09-01T11:02:43.630Z,984.21
2018-09-01T11:03:43.634Z,984.22
2018-09-01T11:04:43.643Z,984.21
2018-09-01T11:05:43.769Z,984.14
2018-09-01T11:06:43.654Z,984.20
2018-09-01T11:07:43.662Z,984.21
2018-09-01T11:08:43.667Z,984.23
2018-09-01T11:09:43.682Z,984.21
2018-09-01T11:10:43.707Z,984.29
2018-09-01T11:11:43.686Z,984.57
2018-09-01T11:12:43.695Z,984.42
2018-09-01T11:13:43.708Z,984.31
2018-09-01T11:14:43.719Z,984.27
2018-09-01T11:15:43.755Z,984.26
2018-09-01T11:16:43.738Z,984.19
2018-09-01T11:17:43.776Z,984.23
2018-09-01T11:18:43.755Z,984.19
2018-09-01T11:19:43.775Z,984.18
2018-09-01T11:20:43.793Z,984.15
2018-09-01T11:21:43.822Z,984.14
2018-09-01T11:22:43.799Z,984.14
2018-09-01T11:23:43.804Z,984.13
2018-09-01T11:24:43.814Z,984.14
2018-09-01T11:25:43.820Z,984.21
2018-09-01T11:26:43.864Z,984.15
2018-09-01T11:27:43.902Z,984.16
2018-09-01T11:28:43.849Z,984.16
2018-09-01T11:29:43.858Z,984.11
2018-09-01T11:30:43.945Z,984.11
2018-09-01T11:31:43.903Z,984.11
2018-09-01T11:32:43.894Z,984.05
2018-09-01T11:33:43.929Z,984.11
2018-09-01T11:34:43.897Z,984.11
2018-09-01T11:35:43.906Z,984.09
2018-09-01T11:36:43.957Z,984.09
2018-09-01T11:37:43.922Z,984.11
2018-09-01T11:38:43.930Z,984.11
2018-09-01T11:39:43.934Z,984.10
2018-09-01T11:40:43.959Z,984.14
2018-09-01T11:41:43.976Z,984.10
2018-09-01T11:42:44.068Z,984.09
2018-09-01T11:43:43.963Z,984.08
2018-09-01T11:44:43.971Z,984.09
2018-09-01T11:45:43.975Z,984.12
2018-09-01T11:46:44.012Z,984.10
2018-09-01T11:47:43.994Z,984.13
2018-09-01T11:48:44.005Z,984.13
2018-09-01T11:49:44.004Z,984.11
2018-09-01T11:50:44.009Z,984.13
2018-09-01T11:51:44.040Z,984.16
2018-09-01T11:52:44.021Z,984.18
2018-09-01T11:53:44.115Z,984.12
2018-09-01T11:54:44.034Z,984.14
2018-09-01T11:55:44.037Z,984.14
2018-09-01T11:56:44.069Z,984.14
2018-09-01T11:57:44.048Z,984.09
2018-09-01T11:58:44.100Z,984.17
2018-09-01T11:59:44.061Z,984.17
2018-09-01T12:00:44.066Z,984.13
2018-09-01T12:01:44.097Z,984.15
2018-09-01T12:02:44.077Z,984.17
2018-09-01T12:03:44.079Z,984.13
2018-09-01T12:04:44.086Z,984.15
2018-09-01T12:05:44.091Z,984.16
2018-09-01T12:06:44.130Z,984.10
2018-09-01T12:07:44.102Z,984.13
2018-09-01T12:08:44.137Z,984.08
2018-09-01T12:09:44.112Z,984.13
2018-09-01T12:10:45.051Z,984.14
2018-09-01T12:11:44.147Z,984.11
2018-09-01T12:12:44.126Z,984.08
2018-09-01T12:13:44.131Z,984.08
2018-09-01T12:14:44.139Z,984.12
2018-09-01T12:15:44.152Z,984.11
2018-09-01T12:16:44.171Z,984.10
2018-09-01T12:17:44.151Z,984.13
2018-09-01T12:18:44.770Z,984.09
2018-09-01T12:19:44.157Z,984.13
2018-09-01T12:20:44.162Z,984.10
2018-09-01T12:21:44.193Z,984.12
2018-09-01T12:22:44.168Z,984.07
2018-09-01T12:23:44.172Z,984.11
2018-09-01T12:24:44.178Z,984.13
2018-09-01T12:25:44.182Z,984.12
2018-09-01T12:26:44.214Z,984.18
2018-09-01T12:27:44.217Z,984.13
2018-09-01T12:28:44.201Z,984.12